createdAt,value
2022-11-14T00:00:30.779Z,23.30
2022-11-14T00:03:15.844Z,28.37
2022-11-14T00:06:04.659Z,30.43
2022-11-14T00:08:49.976Z,33.57
2022-11-14T00:11:34.899Z,29.43
2022-11-14T00:14:20.306Z,36.37
2022-11-14T00:17:05.677Z,29.57
2022-11-14T00:19:50.983Z,34.07
2022-11-14T00:22:36.414Z,31.47
2022-11-14T00:25:21.729Z,33.03
2022-11-14T00:28:06.947Z,31.60
2022-11-14T00:30:51.867Z,36.37
2022-11-14T00:33:37.510Z,29.53
2022-11-14T00:36:22.400Z,36.43
2022-11-14T00:39:07.446Z,37.67
2022-11-14T00:41:52.431Z,34.80
2022-11-14T00:44:37.444Z,32.47
2022-11-14T00:47:22.634Z,34.67
2022-11-14T00:50:08.149Z,37.13
2022-11-14T00:52:53.058Z,37.40
2022-11-14T00:55:38.041Z,35.60
2022-11-14T00:58:23.405Z,44.87
2022-11-14T01:01:08.538Z,42.00
2022-11-14T01:03:53.843Z,44.17
2022-11-14T01:06:38.687Z,41.00
2022-11-14T01:09:23.815Z,38.90
2022-11-14T01:12:09.298Z,44.80
2022-11-14T01:14:54.309Z,44.03
2022-11-14T01:17:39.570Z,43.93
2022-11-14T01:20:25.065Z,45.40
2022-11-14T01:23:11.119Z,43.17
2022-11-14T01:26:01.174Z,44.93
2022-11-14T01:28:46.559Z,40.10
2022-11-14T01:31:31.508Z,38.47
2022-11-14T01:34:16.852Z,43.20
2022-11-14T01:37:01.803Z,42.43
2022-11-14T01:39:47.118Z,40.67
2022-11-14T01:42:32.512Z,41.57
2022-11-14T01:45:41.164Z,35.50
2022-11-14T01:48:38.740Z,40.70
2022-11-14T01:51:28.799Z,36.43
2022-11-14T01:54:19.739Z,41.83
2022-11-14T01:57:05.511Z,36.80
2022-11-14T01:59:53.862Z,42.00
2022-11-14T02:02:39.266Z,38.57
2022-11-14T02:05:24.357Z,37.67
2022-11-14T02:08:11.565Z,40.70
2022-11-14T02:10:56.694Z,40.37
2022-11-14T02:13:41.958Z,38.17
2022-11-14T02:16:27.582Z,42.47
2022-11-14T02:19:15.099Z,36.27
2022-11-14T02:22:00.026Z,38.77
2022-11-14T02:24:45.380Z,36.97
2022-11-14T02:27:31.471Z,36.33
2022-11-14T02:30:18.269Z,35.20
2022-11-14T02:33:11.518Z,38.33
2022-11-14T02:35:57.763Z,39.70
2022-11-14T02:38:42.800Z,35.97
2022-11-14T02:41:27.913Z,39.67
2022-11-14T02:44:14.052Z,35.70
2022-11-14T02:46:59.141Z,33.03
2022-11-14T02:49:44.260Z,39.87
2022-11-14T02:52:29.744Z,35.60
2022-11-14T02:55:14.886Z,38.43
2022-11-14T02:58:00.205Z,38.03
2022-11-14T03:01:13.741Z,37.13
2022-11-14T03:03:50.290Z,37.13
2022-11-14T03:06:35.307Z,39.23
2022-11-14T03:09:20.706Z,37.20
2022-11-14T03:12:06.022Z,39.23
2022-11-14T03:14:51.259Z,46.63
2022-11-14T03:17:36.679Z,45.23
2022-11-14T03:20:21.956Z,37.77
2022-11-14T03:23:06.987Z,45.47
2022-11-14T03:25:51.783Z,46.80
2022-11-14T03:28:37.522Z,44.97
2022-11-14T03:31:22.499Z,42.67
2022-11-14T03:34:07.573Z,46.50
2022-11-14T03:36:52.732Z,46.00
2022-11-14T03:39:37.888Z,44.67
2022-11-14T03:42:23.270Z,47.00
2022-11-14T03:45:08.403Z,51.03
2022-11-14T03:47:54.680Z,48.50
2022-11-14T03:50:40.502Z,48.20
2022-11-14T03:53:25.492Z,49.97
2022-11-14T03:56:10.761Z,45.90
2022-11-14T03:58:55.659Z,43.57
2022-11-14T04:01:41.009Z,48.17
2022-11-14T04:04:26.181Z,45.00
2022-11-14T04:07:11.247Z,45.93
2022-11-14T04:09:56.840Z,47.67
2022-11-14T04:12:41.917Z,47.80
2022-11-14T04:15:27.131Z,44.70
2022-11-14T04:18:12.537Z,46.10
2022-11-14T04:20:57.835Z,46.00
2022-11-14T04:23:43.183Z,47.80
2022-11-14T04:26:28.219Z,46.40
2022-11-14T04:29:13.280Z,44.17
2022-11-14T04:31:58.136Z,45.00
2022-11-14T04:34:43.103Z,40.80
2022-11-14T04:37:28.474Z,45.40
2022-11-14T04:40:13.539Z,43.90
2022-11-14T04:42:58.490Z,42.57
2022-11-14T04:45:43.406Z,47.97
2022-11-14T04:48:28.764Z,43.17
2022-11-14T04:51:14.417Z,46.83
2022-11-14T04:53:59.563Z,45.53
2022-11-14T04:56:44.463Z,42.50
2022-11-14T04:59:29.598Z,42.67
2022-11-14T05:02:15.070Z,42.97
2022-11-14T05:05:00.327Z,43.20
2022-11-14T05:07:45.382Z,44.30
2022-11-14T05:10:30.395Z,45.30
2022-11-14T05:13:15.740Z,40.87
2022-11-14T05:16:01.351Z,42.43
2022-11-14T05:18:47.217Z,43.00
2022-11-14T05:21:32.578Z,44.93
2022-11-14T05:24:19.304Z,43.20
2022-11-14T05:27:04.575Z,46.97
2022-11-14T05:29:49.889Z,46.27
2022-11-14T05:32:34.889Z,39.90
2022-11-14T05:35:20.310Z,44.87
2022-11-14T05:38:05.394Z,47.40
2022-11-14T05:40:50.641Z,40.07
2022-11-14T05:43:35.926Z,41.20
2022-11-14T05:46:21.069Z,38.97
2022-11-14T05:49:06.005Z,45.90
2022-11-14T05:51:50.930Z,48.90
2022-11-14T05:54:35.937Z,47.70
2022-11-14T05:57:20.935Z,38.37
2022-11-14T06:00:06.540Z,40.33
2022-11-14T06:02:55.027Z,44.87
2022-11-14T06:05:40.493Z,47.23
2022-11-14T06:08:27.475Z,44.33
2022-11-14T06:11:17.733Z,48.97
2022-11-14T06:14:08.172Z,43.07
2022-11-14T06:16:56.329Z,45.10
2022-11-14T06:19:41.359Z,38.23
2022-11-14T06:22:26.397Z,42.10
2022-11-14T06:25:12.278Z,41.60
2022-11-14T06:27:58.875Z,46.03
2022-11-14T06:30:43.793Z,39.77
2022-11-14T06:33:29.861Z,39.97
2022-11-14T06:36:15.159Z,46.67
2022-11-14T06:39:00.529Z,43.07
2022-11-14T06:41:45.878Z,43.20
2022-11-14T06:44:31.409Z,44.43
2022-11-14T06:47:16.562Z,43.23
2022-11-14T06:50:01.840Z,44.37
2022-11-14T06:52:46.945Z,39.73
2022-11-14T06:55:32.409Z,41.07
2022-11-14T06:58:17.260Z,36.07
2022-11-14T07:01:06.057Z,39.03
2022-11-14T07:03:51.090Z,40.33
2022-11-14T07:06:36.198Z,42.83
2022-11-14T07:09:21.328Z,37.50
2022-11-14T07:12:06.262Z,38.30
2022-11-14T07:14:51.146Z,46.20
2022-11-14T07:17:36.380Z,46.70
2022-11-14T07:20:21.551Z,44.60
2022-11-14T07:23:06.808Z,47.53
2022-11-14T07:25:52.097Z,43.73
2022-11-14T07:28:37.934Z,39.93
2022-11-14T07:31:22.824Z,45.23
2022-11-14T07:34:09.051Z,40.80
2022-11-14T07:36:55.111Z,46.37
2022-11-14T07:39:40.306Z,37.43
2022-11-14T07:42:28.386Z,39.20
2022-11-14T07:45:13.691Z,40.03
2022-11-14T07:48:00.373Z,40.53
2022-11-14T07:50:47.249Z,40.00
2022-11-14T07:53:32.987Z,38.30
2022-11-14T07:56:18.178Z,40.93
2022-11-14T07:59:03.141Z,40.43
2022-11-14T08:01:48.170Z,40.57
2022-11-14T08:04:33.392Z,38.83
2022-11-14T08:07:18.595Z,41.00
2022-11-14T08:10:04.142Z,41.17
2022-11-14T08:13:24.859Z,42.83
2022-11-14T08:16:11.970Z,38.33
2022-11-14T08:18:58.383Z,36.93
2022-11-14T08:21:44.112Z,38.23
2022-11-14T08:24:29.177Z,44.30
2022-11-14T08:27:14.555Z,38.70
2022-11-14T08:29:59.450Z,41.20
2022-11-14T08:32:44.864Z,42.83
2022-11-14T08:35:30.221Z,37.13
2022-11-14T08:38:15.490Z,38.60
2022-11-14T08:41:01.913Z,42.23
2022-11-14T08:43:46.988Z,39.70
2022-11-14T08:46:32.290Z,40.77
2022-11-14T08:49:17.664Z,39.07
2022-11-14T08:52:03.010Z,40.60
2022-11-14T08:54:48.260Z,39.20
2022-11-14T08:57:33.302Z,41.43
2022-11-14T09:00:18.527Z,47.27
2022-11-14T09:03:10.361Z,41.60
2022-11-14T09:05:55.811Z,37.57
2022-11-14T09:08:40.910Z,39.70
2022-11-14T09:11:25.937Z,38.03
2022-11-14T09:14:11.292Z,39.40
2022-11-14T09:16:59.637Z,40.43
2022-11-14T09:19:47.441Z,38.83
2022-11-14T09:22:32.726Z,38.33
2022-11-14T09:25:17.891Z,39.90
2022-11-14T09:28:04.390Z,37.60
2022-11-14T09:30:49.490Z,40.97
2022-11-14T09:33:34.803Z,40.00
2022-11-14T09:36:19.889Z,39.97
2022-11-14T09:39:05.214Z,44.43
2022-11-14T09:41:50.516Z,37.67
2022-11-14T09:44:35.903Z,36.90
2022-11-14T09:47:23.582Z,33.83
2022-11-14T09:50:12.008Z,31.63
2022-11-14T09:52:58.010Z,33.23
2022-11-14T09:55:43.331Z,35.53
2022-11-14T09:58:28.977Z,36.90
2022-11-14T10:01:31.038Z,41.17
2022-11-14T10:04:19.328Z,37.30
2022-11-14T10:07:14.738Z,37.97
2022-11-14T10:10:08.051Z,37.23
2022-11-14T10:13:01.862Z,37.23
2022-11-14T10:15:46.851Z,38.87
2022-11-14T10:18:50.278Z,35.67
2022-11-14T10:21:54.156Z,36.30
2022-11-14T10:24:57.555Z,38.60
2022-11-14T10:27:45.646Z,39.63
2022-11-14T10:30:36.490Z,31.07
2022-11-14T10:33:22.195Z,33.70
2022-11-14T10:36:25.267Z,38.83
2022-11-14T10:39:24.609Z,31.83
2022-11-14T10:42:13.311Z,31.60
2022-11-14T10:45:02.920Z,31.03
2022-11-14T10:47:56.863Z,29.87
2022-11-14T10:50:46.385Z,29.63
2022-11-14T10:53:31.405Z,31.63
2022-11-14T10:56:16.279Z,30.60
2022-11-14T10:59:01.499Z,31.63
2022-11-14T11:01:58.834Z,27.70
2022-11-14T11:04:44.629Z,26.23
2022-11-14T11:07:48.500Z,27.70
2022-11-14T11:10:53.520Z,28.20
2022-11-14T11:13:48.400Z,25.53
2022-11-14T11:16:33.648Z,30.20
2022-11-14T11:19:18.967Z,26.40
2022-11-14T11:22:04.145Z,27.30
2022-11-14T11:24:49.326Z,25.70
2022-11-14T11:27:34.280Z,28.63
2022-11-14T11:30:20.667Z,28.33
2022-11-14T11:33:21.485Z,25.73
2022-11-14T11:36:12.410Z,26.13
2022-11-14T11:38:57.905Z,25.60
2022-11-14T11:44:53.728Z,23.03
2022-11-14T11:47:39.699Z,26.07
2022-11-14T11:50:26.049Z,27.87
2022-11-14T11:53:34.188Z,26.07
2022-11-14T11:56:22.250Z,25.47
2022-11-14T11:59:17.901Z,29.87
2022-11-14T12:02:20.623Z,28.57
2022-11-14T12:05:06.120Z,31.60
2022-11-14T12:08:04.321Z,29.27
2022-11-14T12:10:49.535Z,31.17
2022-11-14T12:13:34.579Z,31.60
2022-11-14T12:16:31.967Z,29.63
2022-11-14T12:19:32.374Z,26.60
2022-11-14T12:22:17.531Z,28.90
2022-11-14T12:25:14.843Z,31.30
2022-11-14T12:28:15.351Z,27.63
2022-11-14T12:31:03.314Z,28.87
2022-11-14T12:33:53.064Z,29.10
2022-11-14T12:36:39.673Z,32.03
2022-11-14T12:39:28.656Z,28.20
2022-11-14T12:42:19.320Z,28.93
2022-11-14T12:45:04.842Z,30.30
2022-11-14T12:48:16.313Z,30.60
2022-11-14T12:51:02.637Z,24.70
2022-11-14T12:53:47.735Z,28.77
2022-11-14T12:56:32.666Z,27.17
2022-11-14T12:59:25.069Z,25.57
2022-11-14T13:02:21.988Z,26.87
2022-11-14T13:05:07.626Z,22.60
2022-11-14T13:07:55.725Z,21.47
2022-11-14T13:10:41.117Z,27.60
2022-11-14T13:13:44.938Z,25.70
2022-11-14T13:16:49.787Z,24.90
2022-11-14T13:19:53.771Z,24.83
2022-11-14T13:22:40.497Z,30.10
2022-11-14T13:25:26.038Z,27.23
2022-11-14T13:28:39.889Z,25.97
2022-11-14T13:31:26.366Z,27.10
2022-11-14T13:34:17.608Z,27.40
2022-11-14T13:37:21.579Z,25.23
2022-11-14T13:40:25.050Z,29.53
2022-11-14T13:43:10.005Z,23.93
2022-11-14T13:46:07.566Z,25.20
2022-11-14T13:48:52.619Z,24.40
2022-11-14T13:51:45.408Z,25.33
2022-11-14T13:54:30.714Z,24.77
2022-11-14T13:57:21.717Z,24.60
2022-11-14T14:00:19.538Z,23.10
2022-11-14T14:03:24.033Z,26.10
2022-11-14T14:06:27.927Z,23.20
2022-11-14T14:09:32.910Z,29.00
2022-11-14T14:12:27.250Z,23.47
2022-11-14T14:15:20.772Z,23.57
2022-11-14T14:18:18.300Z,23.80
2022-11-14T14:21:10.162Z,27.13
2022-11-14T14:24:00.996Z,26.23
2022-11-14T14:26:49.068Z,24.33
2022-11-14T14:29:48.769Z,24.33
2022-11-14T14:32:34.144Z,23.87
2022-11-14T14:35:22.456Z,24.67
2022-11-14T14:38:21.543Z,27.40
2022-11-14T14:41:06.928Z,25.53
2022-11-14T14:43:54.214Z,26.03
2022-11-14T14:46:39.062Z,26.87
2022-11-14T14:49:28.439Z,28.97
2022-11-14T14:52:33.052Z,25.40
2022-11-14T14:55:19.811Z,23.00
2022-11-14T14:58:22.146Z,24.87
2022-11-14T15:01:15.561Z,19.17
2022-11-14T15:04:07.989Z,24.50
2022-11-14T15:06:55.899Z,25.13
2022-11-14T15:09:50.884Z,24.23
2022-11-14T15:12:36.071Z,23.80
2022-11-14T15:15:21.826Z,26.80
2022-11-14T15:18:08.588Z,24.00
2022-11-14T15:21:12.448Z,24.90
2022-11-14T15:23:58.553Z,22.87
2022-11-14T15:26:49.785Z,27.00
2022-11-14T15:29:35.066Z,27.23
2022-11-14T15:32:21.786Z,25.63
2022-11-14T15:35:25.525Z,26.90
2022-11-14T15:38:42.152Z,28.83
2022-11-14T15:41:18.778Z,23.50
2022-11-14T15:44:05.378Z,25.97
2022-11-14T15:46:50.793Z,26.30
2022-11-14T15:49:36.504Z,28.10
2022-11-14T15:52:24.602Z,26.47
2022-11-14T15:55:13.519Z,26.00
2022-11-14T15:58:26.107Z,28.13
2022-11-14T16:01:04.538Z,26.30
2022-11-14T16:03:51.633Z,26.50
2022-11-14T16:06:36.719Z,24.83
2022-11-14T16:09:21.919Z,23.17
2022-11-14T16:12:07.112Z,24.30
2022-11-14T16:14:52.674Z,22.27
2022-11-14T16:17:38.667Z,27.10
2022-11-14T16:20:25.329Z,28.57
2022-11-14T16:23:12.270Z,30.10
2022-11-14T16:25:57.231Z,23.13
2022-11-14T16:28:42.438Z,23.80
2022-11-14T16:31:27.678Z,24.70
2022-11-14T16:34:18.029Z,25.57
2022-11-14T16:37:03.731Z,27.03
2022-11-14T16:39:49.006Z,27.40
2022-11-14T16:42:34.487Z,25.70
2022-11-14T16:45:22.545Z,26.07
2022-11-14T16:48:07.592Z,29.90
2022-11-14T16:50:56.681Z,25.60
2022-11-14T16:53:42.411Z,28.37
2022-11-14T16:56:27.416Z,28.30
2022-11-14T16:59:12.720Z,29.43
2022-11-14T17:01:57.840Z,26.03
2022-11-14T17:04:44.151Z,26.17
2022-11-14T17:07:32.692Z,23.90
2022-11-14T17:10:17.961Z,26.60
2022-11-14T17:13:03.105Z,26.77
2022-11-14T17:15:48.153Z,27.73
2022-11-14T17:18:38.373Z,24.87
2022-11-14T17:21:23.915Z,29.60
2022-11-14T17:24:09.109Z,29.97
2022-11-14T17:26:54.362Z,28.33
2022-11-14T17:29:39.767Z,28.83
2022-11-14T17:32:24.741Z,31.07
2022-11-14T17:35:10.519Z,34.27
2022-11-14T17:38:00.091Z,33.87
2022-11-14T17:40:46.162Z,29.40
2022-11-14T17:43:38.451Z,31.80
2022-11-14T17:46:24.249Z,33.17
2022-11-14T17:49:09.624Z,32.20
2022-11-14T17:51:54.929Z,32.73
2022-11-14T17:54:40.281Z,32.30
2022-11-14T17:57:25.272Z,36.37
2022-11-14T18:00:10.905Z,35.47
2022-11-14T18:02:56.182Z,34.13
2022-11-14T18:05:41.218Z,33.13
2022-11-14T18:08:26.344Z,36.47
2022-11-14T18:11:12.681Z,35.93
2022-11-14T18:13:58.402Z,37.10
2022-11-14T18:17:11.110Z,34.03
2022-11-14T18:19:48.795Z,36.23
2022-11-14T18:22:34.040Z,33.37
2022-11-14T18:25:19.483Z,33.67
2022-11-14T18:28:04.806Z,37.07
2022-11-14T18:30:55.428Z,36.83
2022-11-14T18:33:41.527Z,33.47
2022-11-14T18:36:26.550Z,36.50
2022-11-14T18:39:11.873Z,39.67
2022-11-14T18:41:57.671Z,32.80
2022-11-14T18:44:42.907Z,37.70
2022-11-14T18:47:29.030Z,41.53
2022-11-14T18:50:14.320Z,42.43
2022-11-14T18:52:59.566Z,39.60
2022-11-14T18:55:45.070Z,39.83
2022-11-14T18:58:30.546Z,38.20
2022-11-14T19:01:24.881Z,42.20
2022-11-14T19:04:10.942Z,40.77
2022-11-14T19:06:56.401Z,40.60
2022-11-14T19:09:44.276Z,39.57
2022-11-14T19:12:29.587Z,39.23
2022-11-14T19:15:14.544Z,42.60
2022-11-14T19:17:59.451Z,37.57
2022-11-14T19:20:46.724Z,44.30
2022-11-14T19:23:33.585Z,40.53
2022-11-14T19:26:19.283Z,38.83
2022-11-14T19:29:05.861Z,42.67
2022-11-14T19:31:51.156Z,41.83
2022-11-14T19:34:36.307Z,38.70
2022-11-14T19:37:21.430Z,33.93
2022-11-14T19:40:06.900Z,38.57
2022-11-14T19:42:55.973Z,35.20
2022-11-14T19:45:41.183Z,38.40
2022-11-14T19:48:26.245Z,38.50
2022-11-14T19:51:12.266Z,37.43
2022-11-14T19:53:58.098Z,39.77
2022-11-14T19:56:43.226Z,40.80
2022-11-14T19:59:28.810Z,42.67
2022-11-14T20:02:14.040Z,38.70
2022-11-14T20:04:58.917Z,37.73
2022-11-14T20:07:43.945Z,37.83
2022-11-14T20:10:29.069Z,37.60
2022-11-14T20:13:14.695Z,36.33
2022-11-14T20:16:00.295Z,36.20
2022-11-14T20:18:46.541Z,39.70
2022-11-14T20:21:32.546Z,39.43
2022-11-14T20:24:21.528Z,38.03
2022-11-14T20:27:06.696Z,34.67
2022-11-14T20:29:52.226Z,35.70
2022-11-14T20:32:37.222Z,34.77
2022-11-14T20:35:22.172Z,38.47
2022-11-14T20:38:07.735Z,35.83
2022-11-14T20:40:56.339Z,39.80
2022-11-14T20:43:41.844Z,39.20
2022-11-14T20:46:26.948Z,29.73
2022-11-14T20:49:11.900Z,31.60
2022-11-14T20:51:57.365Z,34.27
2022-11-14T20:54:42.227Z,31.03
2022-11-14T20:57:27.795Z,29.77
2022-11-14T21:00:13.038Z,32.70
2022-11-14T21:02:58.469Z,34.20
2022-11-14T21:05:43.860Z,33.43
2022-11-14T21:08:29.626Z,30.43
2022-11-14T21:11:18.179Z,30.93
2022-11-14T21:14:04.415Z,28.43
2022-11-14T21:16:49.724Z,28.23
2022-11-14T21:19:35.251Z,25.67
2022-11-14T21:22:20.137Z,29.20
2022-11-14T21:25:05.512Z,31.03
2022-11-14T21:27:50.930Z,30.73
2022-11-14T21:30:36.038Z,28.23
2022-11-14T21:33:21.523Z,27.60
2022-11-14T21:36:37.629Z,27.60
2022-11-14T21:39:16.301Z,30.33
2022-11-14T21:42:01.769Z,28.67
2022-11-14T21:44:46.804Z,30.43
2022-11-14T21:47:33.067Z,29.67
2022-11-14T21:50:18.038Z,26.23
2022-11-14T21:53:03.109Z,26.80
2022-11-14T21:55:48.462Z,28.97
2022-11-14T21:58:33.595Z,28.23
2022-11-14T22:01:39.870Z,25.53
2022-11-14T22:04:25.111Z,30.33
2022-11-14T22:07:10.574Z,25.77
2022-11-14T22:09:55.999Z,25.70
2022-11-14T22:12:41.352Z,25.23
2022-11-14T22:15:26.945Z,27.33
2022-11-14T22:18:11.929Z,25.67
2022-11-14T22:20:59.520Z,27.83
2022-11-14T22:23:44.328Z,28.10
2022-11-14T22:26:29.559Z,25.23
2022-11-14T22:29:14.921Z,24.17
2022-11-14T22:31:59.906Z,28.77
2022-11-14T22:34:44.850Z,28.07
2022-11-14T22:37:32.118Z,27.40
2022-11-14T22:40:17.410Z,22.83
2022-11-14T22:43:02.313Z,29.03
2022-11-14T22:45:51.109Z,23.07
2022-11-14T22:48:36.148Z,25.93
2022-11-14T22:51:25.498Z,28.00
2022-11-14T22:54:10.875Z,25.10
2022-11-14T22:56:56.117Z,27.67
2022-11-14T22:59:41.503Z,25.83
2022-11-14T23:02:26.517Z,26.90
2022-11-14T23:05:11.303Z,25.60
2022-11-14T23:07:56.263Z,27.07
2022-11-14T23:10:41.658Z,27.07
2022-11-14T23:13:27.009Z,25.03
2022-11-14T23:16:13.618Z,25.10
2022-11-14T23:19:00.123Z,22.90
2022-11-14T23:21:45.316Z,25.60
2022-11-14T23:24:30.363Z,28.13
2022-11-14T23:27:15.330Z,27.10
2022-11-14T23:30:00.405Z,21.80
2022-11-14T23:32:45.671Z,23.63
2022-11-14T23:35:30.635Z,25.20
2022-11-14T23:38:15.774Z,24.83
2022-11-14T23:41:01.735Z,25.60
2022-11-14T23:43:47.293Z,26.43
2022-11-14T23:46:32.273Z,22.67
2022-11-14T23:49:17.561Z,24.33
2022-11-14T23:52:02.769Z,26.40
2022-11-14T23:54:47.921Z,24.80
2022-11-14T23:57:33.207Z,24.37
